createdAt,value
2019-05-06T00:02:09.687Z,63.30
2019-05-06T00:04:39.449Z,64.00
2019-05-06T00:07:09.274Z,64.60
2019-05-06T00:09:38.973Z,65.20
2019-05-06T00:12:08.775Z,65.90
2019-05-06T00:14:38.525Z,66.40
2019-05-06T00:17:08.853Z,67.20
2019-05-06T00:19:38.692Z,68.00
2019-05-06T00:22:08.626Z,68.40
2019-05-06T00:24:54.712Z,69.20
2019-05-06T00:27:30.850Z,69.80
2019-05-06T00:30:02.214Z,70.40
2019-05-06T00:32:34.839Z,71.10
2019-05-06T00:35:05.657Z,71.80
2019-05-06T00:37:35.387Z,72.20
2019-05-06T00:40:15.175Z,73.10
2019-05-06T00:42:55.520Z,73.40
2019-05-06T00:45:25.332Z,73.70
2019-05-06T00:47:55.027Z,74.10
2019-05-06T00:50:24.815Z,73.70
2019-05-06T00:52:55.667Z,74.10
2019-05-06T00:55:25.563Z,74.10
2019-05-06T00:57:55.448Z,74.50
2019-05-06T01:00:30.301Z,74.60
2019-05-06T01:03:00.243Z,74.50
2019-05-06T01:05:30.210Z,74.70
2019-05-06T01:08:00.311Z,74.90
2019-05-06T01:10:30.422Z,74.80
2019-05-06T01:13:06.188Z,74.80
2019-05-06T01:15:36.026Z,75.50
2019-05-06T01:18:06.450Z,75.60
2019-05-06T01:20:36.512Z,75.90
2019-05-06T01:23:06.324Z,76.10
2019-05-06T01:25:36.248Z,76.50
2019-05-06T01:28:06.040Z,76.60
2019-05-06T01:30:35.971Z,76.90
2019-05-06T01:33:06.066Z,77.50
2019-05-06T01:35:36.150Z,77.80
2019-05-06T01:38:36.504Z,78.50
2019-05-06T01:41:24.461Z,79.10
2019-05-06T01:43:55.203Z,79.80
2019-05-06T01:46:25.172Z,80.10
2019-05-06T01:48:55.016Z,80.60
2019-05-06T01:51:25.022Z,81.00
2019-05-06T01:53:54.830Z,81.40
2019-05-06T01:56:24.955Z,81.60
2019-05-06T01:58:54.747Z,82.20
2019-05-06T02:01:25.169Z,83.00
2019-05-06T02:03:55.197Z,83.60
2019-05-06T02:06:25.349Z,84.60
2019-05-06T02:08:55.619Z,85.20
2019-05-06T02:11:26.455Z,86.00
2019-05-06T02:13:57.257Z,86.80
2019-05-06T02:16:27.062Z,87.40
2019-05-06T02:18:56.791Z,87.80
2019-05-06T02:21:44.582Z,88.60
2019-05-06T02:24:20.063Z,89.30
2019-05-06T02:26:49.865Z,90.00
2019-05-06T02:29:21.473Z,90.30
2019-05-06T02:32:17.168Z,90.80
2019-05-06T02:34:46.302Z,91.40
2019-05-06T02:37:25.376Z,92.00
2019-05-06T02:39:54.267Z,92.60
2019-05-06T02:42:24.156Z,93.10
2019-05-06T02:44:54.524Z,93.60
2019-05-06T02:47:34.378Z,94.10
2019-05-06T02:50:08.434Z,94.40
2019-05-06T02:52:38.198Z,94.90
2019-05-06T02:55:08.344Z,95.40
2019-05-06T02:57:38.093Z,95.60
2019-05-06T03:00:13.215Z,96.10
2019-05-06T03:02:47.041Z,96.50
2019-05-06T03:05:14.620Z,97.30
2019-05-06T03:07:44.429Z,97.80
2019-05-06T03:10:15.717Z,98.60
2019-05-06T03:12:45.471Z,99.20
2019-05-06T03:15:16.841Z,99.90
2019-05-06T03:17:46.931Z,99.90
2019-05-06T03:20:32.431Z,99.90
2019-05-06T03:23:05.592Z,99.90
2019-05-06T03:25:38.063Z,99.90
2019-05-06T03:28:08.499Z,99.90
2019-05-06T03:30:38.308Z,99.90
2019-05-06T03:33:36.342Z,99.90
2019-05-06T03:35:56.213Z,99.90
2019-05-06T03:38:13.775Z,99.90
2019-05-06T03:40:45.862Z,99.90
2019-05-06T03:43:16.191Z,99.90
2019-05-06T03:46:06.255Z,99.90
2019-05-06T03:48:38.785Z,99.90
2019-05-06T03:51:08.646Z,99.90
2019-05-06T03:53:38.740Z,99.90
2019-05-06T03:56:08.518Z,99.90
2019-05-06T03:58:38.309Z,99.90
2019-05-06T04:01:08.139Z,99.90
2019-05-06T04:03:47.303Z,99.90
2019-05-06T04:06:13.546Z,99.90
2019-05-06T04:08:43.674Z,99.90
2019-05-06T04:11:15.775Z,99.90
2019-05-06T04:13:47.207Z,99.90
2019-05-06T04:16:23.300Z,99.90
2019-05-06T04:19:03.894Z,99.90
2019-05-06T04:21:43.400Z,99.90
2019-05-06T04:24:22.901Z,99.90
2019-05-06T04:27:05.580Z,99.90
2019-05-06T04:29:35.999Z,99.90
2019-05-06T04:32:05.805Z,99.90
2019-05-06T04:34:36.322Z,99.90
2019-05-06T04:37:06.275Z,99.90
2019-05-06T04:39:36.077Z,99.90
2019-05-06T04:42:09.215Z,99.90
2019-05-06T04:44:38.567Z,99.90
2019-05-06T04:47:08.410Z,99.90
2019-05-06T04:49:48.239Z,99.90
2019-05-06T04:52:18.541Z,99.90
2019-05-06T04:54:48.356Z,99.90
2019-05-06T04:57:18.524Z,99.90
2019-05-06T04:59:49.103Z,99.90
2019-05-06T05:02:19.167Z,99.90
2019-05-06T05:04:52.645Z,99.00
2019-05-06T05:07:22.461Z,97.60
2019-05-06T05:09:59.848Z,95.40
2019-05-06T05:12:37.639Z,94.40
2019-05-06T05:15:29.820Z,93.80
2019-05-06T05:18:16.152Z,92.90
2019-05-06T05:20:46.923Z,92.40
2019-05-06T05:23:16.890Z,91.70
2019-05-06T05:25:52.068Z,90.90
2019-05-06T05:28:22.318Z,89.60
2019-05-06T05:30:53.518Z,88.90
2019-05-06T05:33:24.996Z,89.00
2019-05-06T05:35:54.948Z,88.50
2019-05-06T05:38:24.844Z,89.00
2019-05-06T05:40:55.146Z,88.70
2019-05-06T05:43:33.786Z,88.10
2019-05-06T05:46:03.800Z,87.90
2019-05-06T05:49:04.927Z,88.00
2019-05-06T05:51:34.784Z,88.00
2019-05-06T05:54:04.764Z,86.10
2019-05-06T05:56:37.152Z,84.90
2019-05-06T05:59:07.197Z,84.40
2019-05-06T06:01:37.562Z,83.30
2019-05-06T06:04:07.559Z,81.90
2019-05-06T06:06:37.610Z,81.80
2019-05-06T06:09:08.134Z,81.20
2019-05-06T06:12:03.445Z,81.00
2019-05-06T06:14:55.768Z,80.50
2019-05-06T06:17:48.210Z,79.40
2019-05-06T06:20:36.145Z,79.90
2019-05-06T06:23:18.523Z,78.50
2019-05-06T06:25:48.351Z,78.80
2019-05-06T06:28:18.729Z,77.60
2019-05-06T06:30:55.033Z,76.80
2019-05-06T06:33:24.813Z,77.00
2019-05-06T06:36:02.732Z,77.90
2019-05-06T06:39:03.665Z,77.70
2019-05-06T06:41:33.699Z,77.60
2019-05-06T06:44:06.733Z,77.40
2019-05-06T06:46:36.617Z,77.00
2019-05-06T06:49:06.459Z,75.70
2019-05-06T06:51:36.347Z,75.70
2019-05-06T06:54:06.258Z,75.80
2019-05-06T06:57:03.234Z,74.00
2019-05-06T06:59:34.711Z,72.70
2019-05-06T07:02:19.752Z,74.20
2019-05-06T07:05:21.097Z,74.00
2019-05-06T07:07:43.669Z,75.20
2019-05-06T07:10:32.430Z,75.90
2019-05-06T07:13:03.055Z,75.60
2019-05-06T07:15:33.817Z,73.70
2019-05-06T07:18:04.258Z,72.20
2019-05-06T07:20:39.399Z,70.00
2019-05-06T07:23:25.110Z,70.10
2019-05-06T07:25:55.429Z,69.80
2019-05-06T07:28:25.490Z,69.50
2019-05-06T07:30:56.037Z,70.50
2019-05-06T07:33:26.797Z,71.00
2019-05-06T07:35:56.731Z,69.40
2019-05-06T07:38:26.461Z,69.50
2019-05-06T07:41:14.468Z,67.90
2019-05-06T07:44:06.054Z,68.30
2019-05-06T07:47:04.093Z,67.70
2019-05-06T07:49:34.150Z,65.60
2019-05-06T07:52:03.867Z,65.30
2019-05-06T07:54:33.740Z,64.50
2019-05-06T07:57:03.696Z,63.30
2019-05-06T07:59:33.547Z,63.70
2019-05-06T08:02:03.482Z,62.70
2019-05-06T08:04:33.174Z,63.20
2019-05-06T08:07:03.322Z,62.40
2019-05-06T08:09:33.064Z,62.60
2019-05-06T08:12:02.908Z,62.30
2019-05-06T08:14:43.159Z,61.60
2019-05-06T08:17:22.307Z,62.50
2019-05-06T08:19:52.904Z,61.60
2019-05-06T08:22:44.199Z,61.80
2019-05-06T08:25:14.166Z,61.90
2019-05-06T08:27:44.020Z,61.40
2019-05-06T08:30:14.240Z,60.70
2019-05-06T08:32:44.203Z,59.60
2019-05-06T08:35:16.026Z,59.10
2019-05-06T08:37:45.979Z,58.20
2019-05-06T08:40:16.685Z,58.60
2019-05-06T08:42:46.446Z,58.40
2019-05-06T08:45:16.618Z,59.10
2019-05-06T08:47:46.328Z,59.60
2019-05-06T08:50:29.070Z,60.30
2019-05-06T08:53:08.112Z,59.70
2019-05-06T08:55:39.218Z,58.50
2019-05-06T08:58:09.040Z,57.10
2019-05-06T09:00:45.202Z,57.00
2019-05-06T09:03:14.959Z,55.40
2019-05-06T09:05:53.271Z,54.40
2019-05-06T09:08:25.213Z,53.00
2019-05-06T09:10:55.389Z,53.40
2019-05-06T09:13:25.200Z,53.50
2019-05-06T09:15:55.102Z,54.10
2019-05-06T09:18:25.188Z,55.00
2019-05-06T09:20:55.004Z,54.00
2019-05-06T09:23:27.524Z,53.70
2019-05-06T09:25:56.368Z,52.60
2019-05-06T09:28:54.436Z,52.60
2019-05-06T09:31:43.321Z,53.60
2019-05-06T09:34:23.270Z,55.10
2019-05-06T09:37:13.313Z,54.80
2019-05-06T09:39:44.829Z,53.70
2019-05-06T09:42:15.218Z,52.90
2019-05-06T09:44:50.052Z,52.10
2019-05-06T09:47:24.040Z,51.00
2019-05-06T09:49:53.903Z,49.60
2019-05-06T09:52:23.629Z,49.50
2019-05-06T09:55:03.461Z,50.10
2019-05-06T09:57:53.645Z,48.60
2019-05-06T10:00:23.726Z,49.10
2019-05-06T10:02:53.745Z,49.40
2019-05-06T10:05:23.446Z,49.80
2019-05-06T10:07:53.491Z,50.30
2019-05-06T10:10:23.417Z,50.30
2019-05-06T10:12:53.576Z,49.90
2019-05-06T10:15:24.177Z,49.60
2019-05-06T10:18:12.768Z,49.80
2019-05-06T10:20:45.057Z,49.90
2019-05-06T10:23:15.329Z,49.50
2019-05-06T10:25:45.289Z,49.00
2019-05-06T10:28:52.283Z,48.10
2019-05-06T10:31:22.607Z,48.30
2019-05-06T10:34:13.862Z,47.60
2019-05-06T10:37:04.483Z,47.70
2019-05-06T10:39:30.400Z,48.00
2019-05-06T10:42:23.058Z,46.90
2019-05-06T10:45:19.274Z,47.60
2019-05-06T10:47:48.987Z,47.40
2019-05-06T10:50:18.750Z,46.10
2019-05-06T10:53:06.596Z,45.70
2019-05-06T10:55:37.846Z,45.00
2019-05-06T10:58:07.615Z,45.30
2019-05-06T11:00:37.406Z,44.70
2019-05-06T11:03:14.825Z,45.00
2019-05-06T11:05:45.304Z,44.80
2019-05-06T11:08:15.471Z,44.10
2019-05-06T11:10:46.296Z,45.10
2019-05-06T11:13:16.388Z,44.40
2019-05-06T11:15:46.085Z,44.70
2019-05-06T11:18:15.908Z,45.70
2019-05-06T11:20:45.672Z,46.00
2019-05-06T11:23:15.435Z,45.70
2019-05-06T11:25:45.263Z,43.60
2019-05-06T11:28:35.206Z,41.60
2019-05-06T11:31:30.036Z,42.20
2019-05-06T11:34:19.073Z,42.20
2019-05-06T11:36:52.417Z,43.40
2019-05-06T11:39:23.402Z,43.60
2019-05-06T11:42:06.402Z,44.10
2019-05-06T11:44:24.733Z,44.00
2019-05-06T11:46:54.544Z,44.50
2019-05-06T11:49:24.217Z,44.30
2019-05-06T11:51:54.067Z,43.90
2019-05-06T11:54:24.635Z,44.70
2019-05-06T11:56:58.413Z,45.30
2019-05-06T11:59:27.188Z,45.20
2019-05-06T12:02:02.644Z,44.20
2019-05-06T12:04:32.884Z,43.60
2019-05-06T12:07:11.065Z,43.50
2019-05-06T12:09:34.202Z,43.40
2019-05-06T12:12:04.106Z,42.00
2019-05-06T12:14:34.018Z,40.70
2019-05-06T12:17:03.887Z,41.10
2019-05-06T12:19:33.640Z,41.10
2019-05-06T12:22:03.565Z,41.60
2019-05-06T12:24:34.478Z,42.20
2019-05-06T12:27:04.623Z,42.90
2019-05-06T12:29:34.552Z,43.30
2019-05-06T12:32:29.194Z,43.90
2019-05-06T12:34:58.932Z,44.00
2019-05-06T12:37:28.969Z,44.20
2019-05-06T12:39:59.736Z,43.70
2019-05-06T12:42:36.517Z,43.90
2019-05-06T12:45:27.559Z,44.00
2019-05-06T12:48:03.274Z,43.80
2019-05-06T12:50:33.353Z,43.20
2019-05-06T12:53:03.771Z,43.10
2019-05-06T12:55:33.764Z,42.90
2019-05-06T12:58:03.651Z,43.20
2019-05-06T13:00:34.397Z,43.00
2019-05-06T13:03:04.584Z,43.70
2019-05-06T13:05:34.308Z,44.10
2019-05-06T13:08:06.039Z,44.10
2019-05-06T13:10:35.611Z,44.10
2019-05-06T13:13:05.608Z,44.40
2019-05-06T13:15:35.412Z,43.50
2019-05-06T13:18:07.112Z,44.30
2019-05-06T13:20:37.688Z,44.20
2019-05-06T13:23:20.836Z,44.10
2019-05-06T13:25:46.551Z,44.50
2019-05-06T13:28:18.211Z,44.50
2019-05-06T13:30:47.930Z,45.30
2019-05-06T13:33:39.759Z,45.10
2019-05-06T13:36:13.159Z,46.00
2019-05-06T13:38:43.127Z,45.80
2019-05-06T13:41:13.039Z,45.90
2019-05-06T13:43:47.369Z,45.90
2019-05-06T13:46:26.581Z,44.90
2019-05-06T13:49:15.775Z,44.30
2019-05-06T13:51:52.323Z,44.20
2019-05-06T13:54:22.487Z,44.00
2019-05-06T13:56:52.575Z,44.20
2019-05-06T13:59:22.427Z,44.00
2019-05-06T14:01:58.908Z,43.90
2019-05-06T14:04:28.678Z,43.50
2019-05-06T14:06:58.468Z,43.30
2019-05-06T14:09:32.661Z,43.20
2019-05-06T14:12:02.419Z,43.30
2019-05-06T14:14:32.209Z,43.40
2019-05-06T14:17:02.198Z,43.40
2019-05-06T14:19:33.217Z,43.50
2019-05-06T14:22:03.294Z,43.40
2019-05-06T14:24:34.296Z,43.10
2019-05-06T14:27:08.062Z,43.80
2019-05-06T14:29:45.551Z,44.30
2019-05-06T14:32:18.201Z,43.90
2019-05-06T14:34:47.946Z,44.00
2019-05-06T14:37:17.693Z,44.30
2019-05-06T14:39:58.068Z,44.30
2019-05-06T14:42:22.234Z,44.60
2019-05-06T14:44:52.192Z,45.00
2019-05-06T14:47:34.044Z,45.20
2019-05-06T14:50:04.126Z,45.00
2019-05-06T14:52:33.883Z,45.20
2019-05-06T14:55:12.580Z,45.10
2019-05-06T14:57:42.940Z,45.20
2019-05-06T15:00:16.051Z,45.40
2019-05-06T15:02:45.799Z,45.70
2019-05-06T15:05:16.163Z,46.00
2019-05-06T15:07:45.891Z,46.30
2019-05-06T15:10:22.987Z,46.30
2019-05-06T15:12:50.233Z,46.70
2019-05-06T15:15:20.152Z,46.90
2019-05-06T15:17:49.871Z,47.00
2019-05-06T15:20:19.740Z,47.10
2019-05-06T15:22:49.530Z,47.20
2019-05-06T15:25:19.260Z,47.40
2019-05-06T15:27:49.034Z,47.60
2019-05-06T15:30:26.650Z,47.90
2019-05-06T15:32:56.441Z,48.50
2019-05-06T15:35:45.390Z,49.90
2019-05-06T15:38:21.933Z,50.30
2019-05-06T15:40:52.405Z,50.50
2019-05-06T15:43:22.564Z,50.20
2019-05-06T15:45:52.753Z,50.70
2019-05-06T15:48:22.530Z,50.70
2019-05-06T15:50:53.264Z,50.80
2019-05-06T15:53:24.254Z,51.20
2019-05-06T15:55:53.991Z,52.00
2019-05-06T15:58:23.731Z,51.60
2019-05-06T16:00:53.450Z,51.80
2019-05-06T16:03:23.369Z,53.00
2019-05-06T16:05:55.239Z,54.30
2019-05-06T16:08:25.743Z,54.90
2019-05-06T16:10:58.630Z,54.70
2019-05-06T16:13:26.968Z,55.10
2019-05-06T16:15:56.836Z,55.10
2019-05-06T16:18:26.681Z,55.20
2019-05-06T16:20:57.545Z,55.70
2019-05-06T16:23:37.262Z,56.10
2019-05-06T16:26:07.170Z,55.80
2019-05-06T16:28:37.446Z,56.00
2019-05-06T16:31:07.140Z,55.70
2019-05-06T16:33:36.828Z,56.00
2019-05-06T16:36:06.739Z,56.50
2019-05-06T16:38:36.615Z,57.10
2019-05-06T16:41:12.388Z,57.60
2019-05-06T16:43:37.738Z,58.30
2019-05-06T16:46:07.446Z,59.30
2019-05-06T16:48:37.390Z,59.60
2019-05-06T16:51:07.488Z,59.90
2019-05-06T16:53:37.280Z,59.70
2019-05-06T16:56:33.292Z,60.90
2019-05-06T16:59:03.800Z,60.00
2019-05-06T17:01:35.583Z,61.30
2019-05-06T17:04:23.666Z,60.70
2019-05-06T17:06:56.706Z,61.50
2019-05-06T17:09:27.704Z,63.50
2019-05-06T17:11:58.382Z,64.60
2019-05-06T17:14:29.164Z,66.00
2019-05-06T17:16:58.934Z,66.00
2019-05-06T17:19:28.609Z,65.20
2019-05-06T17:21:58.343Z,65.50
2019-05-06T17:24:28.060Z,65.40
2019-05-06T17:26:57.996Z,64.90
2019-05-06T17:29:52.972Z,64.90
2019-05-06T17:32:42.014Z,64.70
2019-05-06T17:35:12.741Z,65.10
2019-05-06T17:37:53.379Z,65.10
2019-05-06T17:40:23.526Z,65.00
2019-05-06T17:42:54.257Z,64.80
2019-05-06T17:45:58.298Z,64.80
2019-05-06T17:48:36.343Z,64.90
2019-05-06T17:51:13.042Z,64.90
2019-05-06T17:53:44.833Z,65.60
2019-05-06T17:56:14.514Z,66.40
2019-05-06T17:58:44.474Z,67.00
2019-05-06T18:01:15.819Z,67.90
2019-05-06T18:03:45.735Z,68.50
2019-05-06T18:06:15.761Z,69.30
2019-05-06T18:08:47.419Z,70.00
2019-05-06T18:11:17.193Z,71.60
2019-05-06T18:13:47.204Z,72.70
2019-05-06T18:16:17.218Z,74.20
2019-05-06T18:18:47.283Z,75.60
2019-05-06T18:21:23.133Z,77.50
2019-05-06T18:23:53.829Z,78.50
2019-05-06T18:26:23.523Z,79.60
2019-05-06T18:28:53.249Z,81.40
2019-05-06T18:31:25.798Z,82.60
2019-05-06T18:33:55.638Z,84.00
2019-05-06T18:36:28.115Z,85.60
2019-05-06T18:38:57.787Z,86.40
2019-05-06T18:41:29.303Z,86.50
2019-05-06T18:43:58.920Z,86.70
2019-05-06T18:46:28.804Z,86.40
2019-05-06T18:48:58.681Z,86.00
2019-05-06T18:51:28.469Z,86.40
2019-05-06T18:53:58.266Z,87.10
2019-05-06T18:56:28.121Z,87.80
2019-05-06T18:58:57.782Z,88.50
2019-05-06T19:01:27.730Z,87.90
2019-05-06T19:04:19.548Z,87.70
2019-05-06T19:06:49.428Z,88.40
2019-05-06T19:09:36.519Z,89.00
2019-05-06T19:12:06.294Z,89.60
2019-05-06T19:14:36.134Z,89.40
2019-05-06T19:17:05.952Z,89.90
2019-05-06T19:19:35.858Z,90.30
2019-05-06T19:22:06.009Z,90.40
2019-05-06T19:24:35.741Z,90.70
2019-05-06T19:27:05.504Z,91.00
2019-05-06T19:29:35.211Z,91.40
2019-05-06T19:32:05.217Z,91.70
2019-05-06T19:34:35.350Z,91.90
2019-05-06T19:37:05.402Z,92.30
2019-05-06T19:39:35.402Z,92.70
2019-05-06T19:42:05.291Z,92.90
2019-05-06T19:44:35.371Z,93.00
2019-05-06T19:47:05.563Z,93.30
2019-05-06T19:49:35.264Z,93.60
2019-05-06T19:52:06.061Z,93.70
2019-05-06T19:54:35.797Z,94.00
2019-05-06T19:57:05.603Z,94.60
2019-05-06T19:59:35.432Z,94.90
2019-05-06T20:02:05.288Z,95.40
2019-05-06T20:04:37.351Z,95.90
2019-05-06T20:07:17.667Z,96.30
2019-05-06T20:10:08.455Z,96.60
2019-05-06T20:12:43.517Z,97.00
2019-05-06T20:15:34.012Z,97.40
2019-05-06T20:18:04.648Z,97.70
2019-05-06T20:20:35.159Z,97.90
2019-05-06T20:23:05.464Z,98.10
2019-05-06T20:25:37.096Z,98.40
2019-05-06T20:28:07.061Z,98.90
2019-05-06T20:30:36.858Z,98.70
2019-05-06T20:33:06.989Z,98.90
2019-05-06T20:35:36.744Z,99.00
2019-05-06T20:38:06.710Z,99.30
2019-05-06T20:40:38.467Z,99.60
2019-05-06T20:43:17.550Z,99.80
2019-05-06T20:45:39.711Z,99.80
2019-05-06T20:48:09.459Z,99.80
2019-05-06T20:50:39.247Z,99.90
2019-05-06T20:53:08.963Z,99.90
2019-05-06T20:55:38.660Z,99.90
2019-05-06T20:58:08.438Z,99.90
2019-05-06T21:00:38.357Z,99.90
2019-05-06T21:03:08.093Z,99.90
2019-05-06T21:05:43.200Z,99.90
2019-05-06T21:08:13.057Z,99.90
2019-05-06T21:10:44.680Z,99.90
2019-05-06T21:13:21.873Z,99.90
2019-05-06T21:15:45.771Z,99.90
2019-05-06T21:18:15.548Z,99.90
2019-05-06T21:20:45.740Z,99.90
2019-05-06T21:23:15.522Z,99.90
2019-05-06T21:25:45.221Z,99.90
2019-05-06T21:28:15.009Z,99.90
2019-05-06T21:30:44.914Z,99.90
2019-05-06T21:33:14.613Z,99.90
2019-05-06T21:35:44.375Z,99.90
2019-05-06T21:38:14.068Z,99.90
2019-05-06T21:40:44.561Z,99.90
2019-05-06T21:43:15.365Z,99.90
2019-05-06T21:45:46.341Z,99.90
2019-05-06T21:48:16.072Z,99.90
2019-05-06T21:50:45.770Z,99.90
2019-05-06T21:53:15.480Z,99.90
2019-05-06T21:55:45.219Z,99.90
2019-05-06T21:58:14.937Z,99.90
2019-05-06T22:00:55.836Z,99.90
2019-05-06T22:03:25.621Z,99.90
2019-05-06T22:05:55.290Z,99.90
2019-05-06T22:08:24.971Z,99.90
2019-05-06T22:10:54.674Z,99.90
2019-05-06T22:13:24.370Z,99.90
2019-05-06T22:15:54.229Z,99.90
2019-05-06T22:18:24.077Z,99.90
2019-05-06T22:21:11.639Z,99.90
2019-05-06T22:24:06.313Z,99.90
2019-05-06T22:26:36.134Z,99.90
2019-05-06T22:29:06.540Z,99.90
2019-05-06T22:31:46.079Z,99.90
2019-05-06T22:34:19.246Z,99.90
2019-05-06T22:36:54.172Z,99.90
2019-05-06T22:39:26.415Z,99.90
2019-05-06T22:41:56.937Z,99.90
2019-05-06T22:44:26.732Z,99.90
2019-05-06T22:46:56.469Z,99.90
2019-05-06T22:49:26.169Z,99.90
2019-05-06T22:51:55.821Z,99.90
2019-05-06T22:54:25.581Z,99.90
2019-05-06T22:56:55.249Z,99.90
2019-05-06T22:59:25.039Z,99.90
2019-05-06T23:02:22.602Z,99.90
2019-05-06T23:04:55.709Z,99.90
2019-05-06T23:07:25.969Z,99.90
2019-05-06T23:09:55.707Z,99.90
2019-05-06T23:12:28.573Z,99.90
2019-05-06T23:14:58.356Z,99.90
2019-05-06T23:17:28.110Z,99.90
2019-05-06T23:19:58.025Z,99.90
2019-05-06T23:22:29.056Z,99.90
2019-05-06T23:24:58.925Z,99.90
2019-05-06T23:27:28.718Z,99.90
2019-05-06T23:29:58.578Z,99.90
2019-05-06T23:32:28.295Z,99.90
2019-05-06T23:34:58.137Z,99.90
2019-05-06T23:37:26.864Z,99.90
2019-05-06T23:40:39.805Z,99.90
2019-05-06T23:43:45.899Z,99.90
2019-05-06T23:46:52.748Z,99.90
2019-05-06T23:49:59.259Z,99.90
2019-05-06T23:53:05.263Z,99.90
2019-05-06T23:56:13.109Z,99.90
2019-05-06T23:58:42.919Z,99.90
